createdAt,value
2019-04-01T00:01:29.835Z,92.00
2019-04-01T00:04:00.719Z,92.20
2019-04-01T00:06:31.023Z,92.30
2019-04-01T00:09:00.653Z,92.50
2019-04-01T00:11:30.159Z,92.50
2019-04-01T00:13:58.371Z,92.50
2019-04-01T00:16:26.595Z,92.20
2019-04-01T00:19:03.004Z,92.20
2019-04-01T00:21:26.067Z,92.10
2019-04-01T00:23:54.279Z,92.10
2019-04-01T00:26:23.412Z,91.90
2019-04-01T00:28:59.014Z,92.40
2019-04-01T00:31:27.240Z,91.30
2019-04-01T00:33:55.465Z,91.30
2019-04-01T00:36:23.720Z,91.40
2019-04-01T00:38:52.495Z,91.50
2019-04-01T00:41:21.767Z,91.30
2019-04-01T00:43:57.365Z,91.20
2019-04-01T00:46:25.649Z,91.30
2019-04-01T00:48:53.857Z,91.20
2019-04-01T00:51:24.739Z,91.10
2019-04-01T00:53:53.220Z,90.90
2019-04-01T00:56:22.046Z,90.70
2019-04-01T00:58:50.330Z,90.60
2019-04-01T01:01:18.558Z,90.60
2019-04-01T01:03:47.108Z,90.30
2019-04-01T01:06:15.577Z,90.40
2019-04-01T01:08:44.727Z,90.40
2019-04-01T01:11:12.954Z,90.50
2019-04-01T01:13:41.170Z,90.60
2019-04-01T01:16:11.030Z,90.60
2019-04-01T01:18:39.239Z,91.00
2019-04-01T01:21:09.098Z,90.90
2019-04-01T01:23:37.322Z,91.10
2019-04-01T01:26:05.547Z,91.50
2019-04-01T01:28:35.255Z,91.50
2019-04-01T01:31:03.696Z,91.50
2019-04-01T01:33:31.910Z,91.50
2019-04-01T01:36:01.083Z,91.60
2019-04-01T01:38:30.463Z,91.70
2019-04-01T01:40:58.674Z,91.80
2019-04-01T01:43:26.890Z,91.90
2019-04-01T01:45:56.729Z,92.10
2019-04-01T01:48:24.950Z,92.10
2019-04-01T01:50:53.169Z,92.20
2019-04-01T01:53:22.470Z,92.10
2019-04-01T01:55:50.681Z,92.20
2019-04-01T01:58:22.041Z,92.40
2019-04-01T02:00:53.166Z,92.60
2019-04-01T02:03:21.942Z,92.70
2019-04-01T02:05:50.197Z,92.80
2019-04-01T02:08:19.806Z,92.80
2019-04-01T02:10:48.018Z,92.60
2019-04-01T02:13:20.099Z,92.60
2019-04-01T02:15:50.386Z,92.60
2019-04-01T02:18:18.757Z,92.80
2019-04-01T02:20:47.166Z,92.60
2019-04-01T02:23:15.414Z,92.60
2019-04-01T02:25:44.109Z,92.70
2019-04-01T02:28:12.337Z,92.60
2019-04-01T02:30:41.133Z,92.80
2019-04-01T02:33:09.351Z,92.70
2019-04-01T02:35:37.571Z,92.90
2019-04-01T02:38:05.777Z,93.00
2019-04-01T02:40:34.009Z,93.20
2019-04-01T02:43:02.225Z,93.40
2019-04-01T02:45:32.123Z,93.50
2019-04-01T02:48:00.330Z,93.70
2019-04-01T02:50:28.562Z,93.90
2019-04-01T02:52:56.782Z,94.30
2019-04-01T02:55:33.806Z,94.20
2019-04-01T02:58:02.009Z,94.20
2019-04-01T03:00:30.258Z,94.40
2019-04-01T03:02:58.482Z,94.50
2019-04-01T03:05:26.699Z,94.70
2019-04-01T03:07:56.323Z,94.80
2019-04-01T03:10:24.540Z,94.80
2019-04-01T03:12:55.134Z,94.90
2019-04-01T03:15:24.135Z,95.00
2019-04-01T03:17:52.366Z,95.10
2019-04-01T03:20:20.619Z,95.50
2019-04-01T03:22:48.833Z,95.50
2019-04-01T03:25:17.416Z,95.60
2019-04-01T03:27:49.187Z,95.40
2019-04-01T03:30:18.807Z,95.50
2019-04-01T03:32:48.871Z,95.40
2019-04-01T03:35:17.122Z,95.60
2019-04-01T03:37:47.256Z,95.70
2019-04-01T03:40:17.102Z,95.60
2019-04-01T03:42:48.603Z,95.50
2019-04-01T03:45:16.830Z,95.40
2019-04-01T03:47:45.058Z,95.70
2019-04-01T03:50:17.883Z,95.80
2019-04-01T03:52:46.138Z,96.10
2019-04-01T03:55:16.937Z,95.80
2019-04-01T03:57:45.166Z,95.70
2019-04-01T04:00:15.309Z,95.80
2019-04-01T04:02:44.104Z,95.70
2019-04-01T04:05:15.567Z,95.60
2019-04-01T04:07:43.789Z,95.50
2019-04-01T04:10:12.011Z,95.60
2019-04-01T04:12:41.866Z,95.50
2019-04-01T04:15:11.292Z,95.60
2019-04-01T04:17:41.133Z,95.60
2019-04-01T04:20:10.984Z,95.50
2019-04-01T04:22:39.198Z,95.50
2019-04-01T04:25:07.488Z,95.50
2019-04-01T04:27:35.704Z,95.60
2019-04-01T04:30:07.163Z,95.70
2019-04-01T04:32:35.370Z,95.70
2019-04-01T04:35:04.265Z,95.50
2019-04-01T04:37:32.467Z,95.70
2019-04-01T04:40:05.547Z,95.60
2019-04-01T04:42:37.258Z,95.60
2019-04-01T04:45:06.518Z,95.70
2019-04-01T04:47:35.842Z,95.70
2019-04-01T04:50:04.790Z,95.70
2019-04-01T04:52:34.873Z,95.50
2019-04-01T04:55:03.260Z,95.30
2019-04-01T04:57:36.914Z,96.00
2019-04-01T05:00:12.147Z,95.70
2019-04-01T05:02:43.695Z,95.80
2019-04-01T05:05:18.030Z,95.60
2019-04-01T05:07:49.757Z,96.10
2019-04-01T05:10:18.238Z,95.80
2019-04-01T05:12:50.927Z,95.70
2019-04-01T05:15:19.386Z,95.80
2019-04-01T05:17:48.162Z,95.60
2019-04-01T05:20:19.177Z,95.60
2019-04-01T05:22:50.318Z,95.50
2019-04-01T05:25:18.782Z,95.50
2019-04-01T05:27:47.155Z,95.60
2019-04-01T05:30:16.441Z,95.20
2019-04-01T05:32:44.900Z,94.90
2019-04-01T05:35:13.129Z,94.60
2019-04-01T05:37:41.365Z,94.30
2019-04-01T05:40:10.693Z,94.00
2019-04-01T05:42:39.155Z,93.30
2019-04-01T05:45:07.764Z,93.00
2019-04-01T05:47:40.642Z,92.20
2019-04-01T05:50:08.874Z,91.40
2019-04-01T05:52:37.098Z,91.00
2019-04-01T05:55:08.722Z,90.60
2019-04-01T05:57:35.741Z,90.00
2019-04-01T06:00:08.307Z,88.30
2019-04-01T06:02:37.669Z,88.20
2019-04-01T06:05:06.893Z,85.20
2019-04-01T06:07:37.073Z,85.10
2019-04-01T06:10:06.529Z,84.30
2019-04-01T06:12:35.014Z,83.60
2019-04-01T06:15:05.159Z,82.70
2019-04-01T06:17:34.566Z,81.60
2019-04-01T06:20:02.851Z,80.20
2019-04-01T06:22:31.296Z,80.20
2019-04-01T06:25:01.142Z,80.30
2019-04-01T06:27:32.773Z,78.10
2019-04-01T06:30:03.757Z,78.00
2019-04-01T06:32:33.928Z,77.60
2019-04-01T06:35:02.145Z,76.30
2019-04-01T06:37:30.354Z,75.20
2019-04-01T06:40:00.431Z,75.00
2019-04-01T06:42:28.698Z,74.00
2019-04-01T06:44:57.919Z,74.20
2019-04-01T06:47:28.761Z,73.00
2019-04-01T06:49:56.977Z,72.40
2019-04-01T06:52:26.825Z,71.60
2019-04-01T06:54:55.511Z,72.00
2019-04-01T06:57:26.593Z,69.60
2019-04-01T06:59:55.173Z,70.70
2019-04-01T07:02:25.050Z,69.20
2019-04-01T07:04:56.439Z,69.90
2019-04-01T07:07:25.294Z,68.80
2019-04-01T07:09:53.947Z,68.60
2019-04-01T07:12:24.204Z,68.70
2019-04-01T07:14:52.954Z,68.80
2019-04-01T07:17:21.729Z,67.30
2019-04-01T07:19:51.548Z,69.20
2019-04-01T07:22:20.389Z,68.60
2019-04-01T07:24:49.679Z,69.10
2019-04-01T07:27:21.284Z,70.10
2019-04-01T07:29:49.455Z,69.60
2019-04-01T07:32:19.559Z,69.40
2019-04-01T07:34:48.018Z,69.70
2019-04-01T07:37:17.282Z,68.50
2019-04-01T07:39:45.522Z,67.70
2019-04-01T07:42:16.985Z,67.70
2019-04-01T07:44:46.410Z,67.40
2019-04-01T07:47:14.870Z,66.40
2019-04-01T07:49:44.724Z,66.30
2019-04-01T07:52:12.954Z,64.90
2019-04-01T07:54:42.758Z,64.30
2019-04-01T07:57:21.118Z,64.80
2019-04-01T07:59:49.354Z,62.70
2019-04-01T08:02:20.296Z,62.00
2019-04-01T08:04:51.374Z,62.30
2019-04-01T08:07:19.597Z,61.50
2019-04-01T08:09:47.817Z,61.30
2019-04-01T08:12:17.017Z,61.50
2019-04-01T08:14:45.225Z,59.90
2019-04-01T08:17:13.701Z,59.70
2019-04-01T08:19:44.928Z,59.90
2019-04-01T08:22:13.146Z,58.70
2019-04-01T08:24:41.363Z,58.80
2019-04-01T08:27:11.212Z,59.00
2019-04-01T08:29:39.448Z,58.90
2019-04-01T08:32:07.655Z,58.20
2019-04-01T08:34:37.139Z,58.50
2019-04-01T08:37:05.394Z,58.70
2019-04-01T08:39:34.630Z,58.90
2019-04-01T08:42:02.835Z,58.80
2019-04-01T08:44:35.097Z,59.70
2019-04-01T08:47:01.037Z,59.00
2019-04-01T08:49:29.280Z,57.90
2019-04-01T08:51:58.782Z,57.40
2019-04-01T08:54:28.061Z,56.50
2019-04-01T08:56:56.288Z,56.10
2019-04-01T08:59:24.517Z,56.90
2019-04-01T09:01:54.565Z,55.90
2019-04-01T09:04:26.029Z,56.70
2019-04-01T09:06:55.870Z,56.10
2019-04-01T09:09:25.714Z,56.00
2019-04-01T09:11:55.207Z,54.80
2019-04-01T09:14:23.574Z,55.30
2019-04-01T09:16:52.837Z,54.90
2019-04-01T09:19:21.057Z,55.30
2019-04-01T09:21:49.521Z,55.30
2019-04-01T09:24:17.731Z,55.30
2019-04-01T09:26:45.963Z,54.70
2019-04-01T09:29:15.423Z,55.00
2019-04-01T09:31:43.653Z,55.10
2019-04-01T09:34:11.884Z,54.80
2019-04-01T09:36:41.341Z,55.10
2019-04-01T09:39:09.553Z,54.80
2019-04-01T09:41:37.769Z,55.20
2019-04-01T09:44:06.242Z,54.90
2019-04-01T09:46:34.445Z,54.80
2019-04-01T09:49:02.683Z,54.10
2019-04-01T09:51:32.097Z,54.60
2019-04-01T09:54:04.586Z,55.10
2019-04-01T09:56:34.437Z,55.00
2019-04-01T09:59:03.947Z,54.30
2019-04-01T10:01:32.151Z,54.20
2019-04-01T10:04:00.371Z,54.00
2019-04-01T10:06:30.818Z,53.40
2019-04-01T10:08:59.024Z,54.80
2019-04-01T10:11:27.505Z,54.20
2019-04-01T10:13:55.717Z,54.00
2019-04-01T10:16:26.525Z,53.80
2019-04-01T10:18:54.345Z,53.20
2019-04-01T10:21:22.588Z,53.40
2019-04-01T10:23:53.521Z,54.10
2019-04-01T10:26:21.742Z,54.20
2019-04-01T10:28:51.590Z,54.30
2019-04-01T10:31:19.801Z,54.60
2019-04-01T10:33:48.057Z,54.70
2019-04-01T10:36:19.831Z,53.80
2019-04-01T10:38:49.971Z,54.50
2019-04-01T10:41:21.658Z,53.90
2019-04-01T10:43:49.889Z,53.20
2019-04-01T10:46:18.114Z,52.70
2019-04-01T10:48:46.353Z,52.90
2019-04-01T10:51:15.685Z,53.20
2019-04-01T10:53:44.167Z,54.60
2019-04-01T10:56:14.007Z,53.30
2019-04-01T10:58:42.337Z,53.50
2019-04-01T11:01:11.999Z,54.00
2019-04-01T11:03:43.208Z,53.80
2019-04-01T11:06:11.538Z,52.20
2019-04-01T11:08:41.717Z,51.90
2019-04-01T11:11:09.980Z,51.90
2019-04-01T11:13:38.669Z,51.80
2019-04-01T11:16:31.429Z,52.30
2019-04-01T11:18:58.237Z,52.50
2019-04-01T11:21:28.014Z,53.00
2019-04-01T11:23:56.801Z,53.70
2019-04-01T11:26:25.045Z,52.60
2019-04-01T11:28:53.873Z,51.70
2019-04-01T11:31:22.117Z,51.30
2019-04-01T11:33:50.358Z,52.30
2019-04-01T11:36:18.600Z,52.50
2019-04-01T11:38:46.842Z,52.40
2019-04-01T11:41:15.259Z,53.00
2019-04-01T11:43:43.516Z,52.90
2019-04-01T11:46:12.681Z,52.40
2019-04-01T11:48:41.274Z,52.00
2019-04-01T11:51:09.513Z,50.80
2019-04-01T11:53:38.001Z,51.70
2019-04-01T11:56:06.226Z,52.40
2019-04-01T11:58:34.449Z,52.50
2019-04-01T12:01:02.665Z,52.10
2019-04-01T12:03:30.909Z,51.00
2019-04-01T12:05:59.140Z,51.10
2019-04-01T12:08:28.053Z,50.60
2019-04-01T12:10:57.697Z,49.90
2019-04-01T12:13:27.091Z,51.10
2019-04-01T12:15:57.062Z,51.50
2019-04-01T12:18:26.090Z,51.90
2019-04-01T12:20:54.306Z,51.80
2019-04-01T12:23:25.219Z,52.10
2019-04-01T12:25:57.218Z,52.30
2019-04-01T12:28:29.993Z,51.80
2019-04-01T12:30:59.889Z,52.20
2019-04-01T12:33:29.806Z,51.70
2019-04-01T12:36:00.183Z,52.20
2019-04-01T12:38:33.215Z,52.80
2019-04-01T12:41:02.706Z,52.60
2019-04-01T12:43:34.292Z,52.50
2019-04-01T12:46:02.510Z,51.40
2019-04-01T12:48:32.079Z,51.00
2019-04-01T12:51:02.158Z,51.00
2019-04-01T12:53:35.296Z,50.70
2019-04-01T12:56:08.650Z,50.80
2019-04-01T12:58:37.589Z,51.40
2019-04-01T13:01:09.417Z,51.20
2019-04-01T13:03:39.352Z,50.70
2019-04-01T13:06:10.403Z,50.90
2019-04-01T13:08:38.682Z,50.50
2019-04-01T13:11:07.535Z,50.90
2019-04-01T13:13:35.745Z,49.40
2019-04-01T13:16:04.985Z,48.80
2019-04-01T13:18:33.206Z,48.70
2019-04-01T13:21:02.476Z,48.70
2019-04-01T13:23:30.685Z,48.90
2019-04-01T13:25:59.158Z,49.10
2019-04-01T13:28:28.477Z,48.90
2019-04-01T13:31:01.087Z,48.60
2019-04-01T13:33:29.562Z,49.10
2019-04-01T13:35:57.769Z,48.70
2019-04-01T13:38:26.022Z,48.70
2019-04-01T13:40:54.248Z,49.40
2019-04-01T13:43:23.660Z,48.50
2019-04-01T13:45:51.870Z,48.60
2019-04-01T13:48:20.678Z,49.70
2019-04-01T13:50:48.906Z,49.60
2019-04-01T13:53:17.227Z,49.20
2019-04-01T13:55:48.490Z,49.10
2019-04-01T13:58:18.345Z,48.90
2019-04-01T14:00:46.654Z,48.60
2019-04-01T14:03:16.774Z,49.00
2019-04-01T14:05:45.082Z,49.30
2019-04-01T14:08:13.548Z,49.10
2019-04-01T14:10:41.772Z,49.10
2019-04-01T14:13:12.898Z,49.60
2019-04-01T14:15:41.377Z,48.80
2019-04-01T14:18:10.397Z,49.90
2019-04-01T14:20:38.654Z,48.30
2019-04-01T14:23:06.932Z,48.10
2019-04-01T14:25:40.574Z,48.00
2019-04-01T14:28:11.446Z,48.40
2019-04-01T14:30:39.684Z,48.40
2019-04-01T14:33:09.642Z,48.10
2019-04-01T14:35:37.892Z,47.90
2019-04-01T14:38:07.748Z,47.10
2019-04-01T14:40:37.462Z,48.00
2019-04-01T14:43:06.754Z,48.10
2019-04-01T14:45:35.482Z,47.70
2019-04-01T14:48:08.707Z,48.20
2019-04-01T14:50:37.425Z,46.80
2019-04-01T14:53:07.319Z,47.10
2019-04-01T14:55:35.706Z,47.60
2019-04-01T14:58:07.014Z,47.70
2019-04-01T15:00:35.502Z,47.40
2019-04-01T15:03:07.243Z,48.20
2019-04-01T15:05:38.356Z,47.70
2019-04-01T15:08:09.263Z,47.40
2019-04-01T15:10:42.190Z,47.80
2019-04-01T15:13:10.444Z,48.00
2019-04-01T15:15:59.406Z,47.60
2019-04-01T15:18:27.629Z,47.00
2019-04-01T15:20:58.760Z,47.30
2019-04-01T15:23:27.472Z,46.90
2019-04-01T15:25:55.978Z,46.80
2019-04-01T15:28:24.757Z,46.90
2019-04-01T15:30:52.988Z,47.00
2019-04-01T15:33:23.826Z,47.50
2019-04-01T15:35:53.687Z,47.40
2019-04-01T15:38:22.211Z,47.50
2019-04-01T15:40:51.523Z,47.00
2019-04-01T15:43:22.738Z,47.40
2019-04-01T15:45:52.611Z,46.80
2019-04-01T15:48:20.822Z,46.60
2019-04-01T15:50:49.298Z,46.70
2019-04-01T15:53:23.366Z,46.50
2019-04-01T15:55:50.489Z,46.00
2019-04-01T15:58:18.713Z,46.20
2019-04-01T16:00:47.182Z,46.40
2019-04-01T16:03:17.125Z,46.60
2019-04-01T16:05:47.597Z,46.70
2019-04-01T16:08:17.077Z,46.40
2019-04-01T16:10:45.313Z,46.90
2019-04-01T16:13:14.318Z,46.30
2019-04-01T16:15:43.803Z,46.30
2019-04-01T16:18:17.676Z,46.10
2019-04-01T16:20:47.557Z,46.10
2019-04-01T16:23:19.572Z,46.20
2019-04-01T16:25:47.827Z,45.90
2019-04-01T16:28:17.732Z,46.30
2019-04-01T16:30:46.083Z,45.90
2019-04-01T16:33:14.546Z,46.70
2019-04-01T16:35:45.850Z,45.90
2019-04-01T16:38:14.322Z,46.10
2019-04-01T16:40:45.487Z,46.20
2019-04-01T16:43:13.683Z,46.60
2019-04-01T16:45:44.873Z,47.00
2019-04-01T16:48:14.320Z,47.00
2019-04-01T16:50:42.563Z,46.70
2019-04-01T16:53:10.815Z,46.30
2019-04-01T16:55:41.480Z,46.30
2019-04-01T16:58:09.713Z,47.30
2019-04-01T17:00:39.582Z,47.70
2019-04-01T17:03:14.226Z,48.50
2019-04-01T17:05:50.948Z,49.50
2019-04-01T17:08:20.779Z,50.10
2019-04-01T17:10:49.738Z,51.30
2019-04-01T17:13:17.987Z,51.40
2019-04-01T17:15:51.131Z,51.60
2019-04-01T17:18:20.825Z,52.10
2019-04-01T17:20:49.380Z,52.60
2019-04-01T17:23:17.606Z,53.00
2019-04-01T17:25:47.614Z,52.70
2019-04-01T17:28:27.174Z,52.90
2019-04-01T17:31:00.666Z,53.20
2019-04-01T17:33:55.267Z,53.50
2019-04-01T17:39:26.524Z,54.30
2019-04-01T17:47:50.243Z,55.40
2019-04-01T17:50:18.471Z,55.90
2019-04-01T17:52:49.425Z,55.40
2019-04-01T17:55:17.690Z,55.70
2019-04-01T17:57:46.221Z,55.90
2019-04-01T18:00:19.727Z,56.40
2019-04-01T18:02:53.996Z,57.20
2019-04-01T18:05:23.227Z,57.70
2019-04-01T18:07:51.996Z,58.20
2019-04-01T18:10:22.563Z,58.90
2019-04-01T18:12:54.064Z,59.70
2019-04-01T18:15:25.955Z,59.80
2019-04-01T18:17:55.827Z,59.80
2019-04-01T18:20:27.024Z,59.90
2019-04-01T18:22:57.478Z,59.90
2019-04-01T18:25:26.461Z,60.40
2019-04-01T18:27:56.471Z,60.90
2019-04-01T18:30:27.344Z,61.70
2019-04-01T18:32:59.818Z,61.80
2019-04-01T18:35:30.667Z,62.20
2019-04-01T18:38:01.842Z,63.30
2019-04-01T18:40:32.956Z,65.00
2019-04-01T18:43:02.303Z,66.20
2019-04-01T18:45:30.538Z,67.70
2019-04-01T18:47:59.218Z,69.00
2019-04-01T18:50:33.370Z,69.10
2019-04-01T18:53:00.901Z,69.30
2019-04-01T18:55:31.271Z,69.50
2019-04-01T18:57:59.764Z,70.40
2019-04-01T19:00:29.879Z,69.70
2019-04-01T19:02:58.658Z,70.90
2019-04-01T19:05:26.894Z,71.40
2019-04-01T19:07:56.606Z,72.20
2019-04-01T19:10:24.833Z,72.80
2019-04-01T19:13:05.202Z,72.70
2019-04-01T19:15:37.353Z,72.80
2019-04-01T19:17:56.414Z,74.00
2019-04-01T19:20:24.641Z,74.40
2019-04-01T19:22:56.030Z,75.10
2019-04-01T19:25:25.842Z,75.40
2019-04-01T19:27:54.671Z,75.30
2019-04-01T19:30:28.011Z,76.50
2019-04-01T19:32:58.015Z,75.70
2019-04-01T19:35:26.233Z,76.90
2019-04-01T19:37:56.356Z,77.60
2019-04-01T19:40:24.881Z,78.20
2019-04-01T19:42:57.272Z,78.60
2019-04-01T19:45:26.042Z,78.80
2019-04-01T19:47:57.405Z,78.70
2019-04-01T19:50:28.832Z,79.10
2019-04-01T19:52:57.061Z,79.60
2019-04-01T19:55:26.336Z,80.50
2019-04-01T19:57:58.447Z,80.60
2019-04-01T20:00:28.336Z,80.40
2019-04-01T20:02:56.862Z,80.70
2019-04-01T20:05:26.763Z,81.00
2019-04-01T20:07:56.601Z,81.00
2019-04-01T20:10:28.400Z,81.60
2019-04-01T20:12:57.950Z,81.10
2019-04-01T20:15:26.572Z,82.10
2019-04-01T20:17:57.549Z,82.20
2019-04-01T20:20:32.199Z,82.00
2019-04-01T20:23:04.948Z,82.20
2019-04-01T20:25:33.665Z,82.40
2019-04-01T20:28:10.689Z,82.30
2019-04-01T20:30:42.565Z,82.30
2019-04-01T20:33:17.464Z,82.80
2019-04-01T20:35:42.040Z,82.40
2019-04-01T20:38:12.909Z,82.40
2019-04-01T20:40:41.137Z,83.50
2019-04-01T20:43:12.198Z,83.90
2019-04-01T20:45:40.461Z,84.10
2019-04-01T20:48:09.141Z,84.60
2019-04-01T20:50:37.402Z,85.00
2019-04-01T20:53:06.245Z,84.80
2019-04-01T20:55:47.687Z,84.80
2019-04-01T20:58:07.111Z,84.40
2019-04-01T21:00:40.408Z,84.50
2019-04-01T21:03:08.619Z,84.60
2019-04-01T21:05:38.498Z,84.10
2019-04-01T21:08:09.016Z,84.30
2019-04-01T21:10:42.122Z,84.20
2019-04-01T21:13:11.157Z,84.30
2019-04-01T21:15:41.356Z,83.80
2019-04-01T21:18:11.198Z,83.50
2019-04-01T21:20:39.401Z,83.30
2019-04-01T21:23:09.250Z,82.90
2019-04-01T21:25:38.133Z,82.80
2019-04-01T21:28:06.361Z,82.70
2019-04-01T21:30:34.573Z,82.60
2019-04-01T21:33:04.980Z,82.50
2019-04-01T21:35:35.826Z,83.60
2019-04-01T21:38:11.452Z,84.00
2019-04-01T21:40:41.776Z,84.10
2019-04-01T21:43:10.222Z,84.60
2019-04-01T21:45:38.663Z,85.30
2019-04-01T21:48:07.806Z,85.50
2019-04-01T21:50:37.869Z,85.70
2019-04-01T21:53:06.807Z,85.30
2019-04-01T21:55:35.032Z,85.80
2019-04-01T21:58:03.987Z,86.20
2019-04-01T22:00:39.535Z,87.10
2019-04-01T22:03:08.254Z,87.80
2019-04-01T22:05:38.122Z,88.60
2019-04-01T22:08:07.201Z,89.40
2019-04-01T22:10:35.447Z,89.80
2019-04-01T22:13:04.242Z,90.40
2019-04-01T22:15:32.458Z,90.30
2019-04-01T22:18:00.938Z,90.40
2019-04-01T22:20:29.387Z,90.70
2019-04-01T22:22:58.317Z,90.80
2019-04-01T22:25:29.118Z,90.80
2019-04-01T22:28:00.463Z,90.90
2019-04-01T22:30:28.684Z,90.70
2019-04-01T22:32:59.174Z,90.70
2019-04-01T22:35:38.135Z,90.70
2019-04-01T22:37:58.314Z,91.00
2019-04-01T22:40:26.659Z,91.10
2019-04-01T22:42:56.208Z,91.40
2019-04-01T22:45:25.276Z,91.40
2019-04-01T22:47:54.880Z,91.40
2019-04-01T22:50:23.878Z,91.10
2019-04-01T22:52:52.094Z,90.80
2019-04-01T22:55:21.582Z,90.80
2019-04-01T22:57:50.358Z,91.20
2019-04-01T23:00:19.521Z,91.10
2019-04-01T23:02:48.813Z,91.20
2019-04-01T23:05:17.041Z,91.10
2019-04-01T23:07:46.901Z,91.30
2019-04-01T23:10:15.110Z,91.30
2019-04-01T23:12:43.334Z,91.40
2019-04-01T23:15:11.578Z,91.50
2019-04-01T23:17:41.431Z,91.30
2019-04-01T23:20:09.640Z,91.60
2019-04-01T23:22:40.591Z,91.90
2019-04-01T23:25:10.369Z,91.60
2019-04-01T23:27:40.110Z,91.70
2019-04-01T23:30:10.269Z,92.00
2019-04-01T23:32:41.500Z,92.20
2019-04-01T23:35:09.126Z,92.40
2019-04-01T23:37:38.974Z,92.40
2019-04-01T23:40:07.190Z,92.60
2019-04-01T23:42:38.133Z,92.70
2019-04-01T23:45:06.974Z,92.80
2019-04-01T23:47:36.350Z,93.00
2019-04-01T23:50:07.150Z,93.10
2019-04-01T23:52:35.373Z,93.10
2019-04-01T23:55:06.667Z,93.20
2019-04-01T23:57:35.370Z,93.30
